Time;durP1;ratioP1;P1;durP2;ratioP2;P2;SDS_P1;SDS_P2;PMS_P1;PMS_P2;Temp;Humidity;BMP_temperature;BMP_pressure;BME280_temperature;BME280_humidity;BME280_pressure;Samples;Min_cycle;Max_cycle;Signal;HPM_P1;HPM_P2
2024/01/13 00:06:36;;;;;;;28.40;13.10;;;;;;;3.11;96.22;100314.17;682088;1266;140493;-78
2024/01/13 00:21:40;;;;;;;15.40;8.90;;;;;;;3.18;95.96;100295.97;682224;1265;139373;-78
2024/01/13 00:36:44;;;;;;;13.00;7.00;;;;;;;3.17;95.65;100301.02;682235;1263;139894;-79
2024/01/13 00:51:47;;;;;;;26.40;12.20;;;;;;;3.17;95.33;100300.34;682334;1263;138908;-78
2024/01/13 01:06:51;;;;;;;22.40;8.80;;;;;;;3.30;95.47;100303.59;682118;1263;138394;-79
2024/01/13 01:21:55;;;;;;;17.90;7.70;;;;;;;3.33;95.30;100309.48;682359;1263;139433;-79
2024/01/13 01:37:00;;;;;;;19.10;9.60;;;;;;;3.20;95.35;100299.34;682274;1264;138183;-79
2024/01/13 01:52:04;;;;;;;19.70;9.10;;;;;;;3.20;95.60;100280.48;682181;1259;139138;-79
2024/01/13 02:07:09;;;;;;;19.30;8.60;;;;;;;3.32;95.34;100271.67;682127;1263;139379;-79
2024/01/13 02:22:12;;;;;;;13.20;7.20;;;;;;;3.33;95.18;100260.86;682309;1264;138309;-79
2024/01/13 02:37:16;;;;;;;21.30;8.00;;;;;;;3.18;94.80;100235.16;682094;1264;138469;-79
2024/01/13 02:52:20;;;;;;;18.80;8.00;;;;;;;3.19;94.78;100217.44;682188;1263;138829;-79
2024/01/13 03:07:25;;;;;;;14.00;7.20;;;;;;;3.19;94.79;100201.68;682073;1263;139202;-79
2024/01/13 03:22:30;;;;;;;12.50;6.70;;;;;;;3.27;94.60;100205.22;682186;1265;140168;-79
2024/01/13 03:37:34;;;;;;;18.40;8.50;;;;;;;3.32;94.12;100212.38;682096;1264;139928;-80
2024/01/13 03:52:37;;;;;;;11.00;6.30;;;;;;;3.22;94.26;100221.11;682276;1263;137926;-79
2024/01/13 04:07:40;;;;;;;26.30;10.20;;;;;;;3.16;94.34;100209.30;682031;1264;140002;-80
2024/01/13 04:22:45;;;;;;;22.00;8.10;;;;;;;3.28;94.99;100202.94;682110;1262;138790;-79
2024/01/13 04:37:48;;;;;;;21.90;8.40;;;;;;;3.36;95.19;100206.11;682099;1264;140159;-80
2024/01/13 04:52:52;;;;;;;24.40;8.80;;;;;;;3.36;95.48;100205.40;682236;1264;139443;-80
2024/01/13 05:07:56;;;;;;;14.60;8.10;;;;;;;3.43;95.55;100196.16;682099;1262;138576;-80
2024/01/13 05:23:00;;;;;;;11.90;6.60;;;;;;;3.30;95.33;100188.27;682193;1263;138178;-81
2024/01/13 05:38:04;;;;;;;36.00;12.70;;;;;;;3.21;95.70;100184.52;682234;1264;138065;-80
2024/01/13 05:53:07;;;;;;;35.40;13.70;;;;;;;3.19;96.32;100187.71;682013;1260;140516;-78
2024/01/13 06:08:11;;;;;;;34.20;13.50;;;;;;;3.32;96.23;100196.43;682133;1266;138645;-79
2024/01/13 06:23:15;;;;;;;43.70;14.00;;;;;;;3.36;96.06;100203.84;682173;1260;140104;-80
2024/01/13 06:38:18;;;;;;;66.90;29.00;;;;;;;3.34;96.50;100206.02;682175;1260;139589;-79
2024/01/13 06:53:22;;;;;;;33.70;14.00;;;;;;;3.20;96.71;100185.92;681911;1267;139220;-81
2024/01/13 07:08:28;;;;;;;61.30;30.00;;;;;;;3.02;97.60;100180.44;682121;1261;139558;-80
2024/01/13 07:23:32;;;;;;;66.10;36.00;;;;;;;3.08;97.67;100178.15;681925;1259;142284;-80
2024/01/13 07:38:36;;;;;;;45.80;26.10;;;;;;;3.18;97.53;100168.10;682046;1263;139939;-80
2024/01/13 07:53:40;;;;;;;262.60;87.30;;;;;;;3.15;96.99;100169.65;682130;1263;138323;-81
2024/01/13 08:08:45;;;;;;;138.30;49.40;;;;;;;3.05;97.21;100151.71;682102;1262;139601;-80
2024/01/13 08:23:48;;;;;;;57.20;23.40;;;;;;;3.08;97.24;100120.79;681939;1264;139798;-82
2024/01/13 08:38:52;;;;;;;47.30;17.20;;;;;;;3.29;96.40;100118.98;682073;1262;138523;-81
2024/01/13 08:53:57;;;;;;;61.90;23.60;;;;;;;3.06;95.93;100110.02;681980;1261;139476;-82
2024/01/13 09:09:02;;;;;;;179.80;52.80;;;;;;;3.03;95.21;100114.38;682188;1275;137970;-81
2024/01/13 09:24:17;;;;;;;217.10;61.10;;;;;;;2.93;94.37;100113.90;681875;1259;142611;-82
2024/01/13 09:39:26;;;;;;;130.70;54.20;;;;;;;2.79;93.73;100079.83;682250;1259;138793;-82
2024/01/13 09:54:30;;;;;;;33.20;14.20;;;;;;;2.32;94.09;100040.59;682310;1259;139063;-82
2024/01/13 10:09:36;;;;;;;50.10;17.60;;;;;;;2.18;93.88;100016.66;682058;1259;140017;-82
2024/01/13 10:24:40;;;;;;;33.00;12.10;;;;;;;2.24;93.79;100001.48;681998;1262;139996;-81
2024/01/13 10:39:44;;;;;;;53.00;17.00;;;;;;;2.03;93.53;99992.20;681947;1260;138457;-82
2024/01/13 10:54:50;;;;;;;58.80;21.20;;;;;;;1.89;94.50;99955.39;681960;1262;138930;-83
2024/01/13 11:09:59;;;;;;;34.00;16.00;;;;;;;1.66;95.53;99915.80;682064;1261;139374;-80
2024/01/13 11:25:25;;;;;;;42.70;17.80;;;;;;;1.82;95.09;99904.35;681866;1265;138801;-79
2024/01/13 11:40:32;;;;;;;420.60;87.80;;;;;;;1.97;93.60;99881.77;682006;1263;139125;-80
2024/01/13 11:55:35;;;;;;;33.60;15.70;;;;;;;2.07;92.67;99856.17;681816;1260;139315;-81
2024/01/13 12:10:45;;;;;;;37.70;17.50;;;;;;;2.38;92.09;99809.11;681931;1261;137993;-81
2024/01/13 12:25:48;;;;;;;77.10;23.70;;;;;;;2.25;90.91;99760.73;682152;1273;139371;-81
2024/01/13 12:41:10;;;;;;;47.60;17.20;;;;;;;2.15;91.13;99703.21;681750;1260;139728;-80
2024/01/13 12:56:17;;;;;;;40.00;17.80;;;;;;;2.04;91.72;99676.05;682031;1265;139571;-80
2024/01/13 13:11:22;;;;;;;43.20;17.40;;;;;;;2.27;91.66;99659.14;681982;1264;138093;-81
2024/01/13 13:26:26;;;;;;;68.50;25.00;;;;;;;2.19;92.27;99622.73;682032;1260;138507;-80
2024/01/13 13:41:31;;;;;;;93.00;32.60;;;;;;;2.21;93.16;99584.79;681777;1262;138834;-81
2024/01/13 13:56:34;;;;;;;81.40;30.20;;;;;;;2.14;94.83;99557.09;681699;1261;139724;-80
2024/01/13 14:11:39;;;;;;;52.60;20.50;;;;;;;2.13;95.87;99535.96;681794;1261;139514;-79
2024/01/13 14:26:45;;;;;;;46.90;21.40;;;;;;;2.28;96.68;99505.34;681858;1263;138853;-78
2024/01/13 14:41:48;;;;;;;47.60;20.70;;;;;;;2.32;97.48;99464.13;682101;1260;139441;-78
2024/01/13 14:56:53;;;;;;;34.70;16.80;;;;;;;2.47;98.06;99439.48;682202;1259;138815;-79
2024/01/13 15:11:59;;;;;;;47.60;20.60;;;;;;;2.58;98.28;99422.17;682052;1263;138853;-79
2024/01/13 15:27:04;;;;;;;35.50;15.80;;;;;;;2.64;98.99;99397.58;681836;1262;139827;-79
2024/01/13 15:42:07;;;;;;;33.60;16.30;;;;;;;2.79;99.45;99363.23;681900;1265;138908;-79
2024/01/13 15:57:11;;;;;;;33.00;15.50;;;;;;;2.79;99.99;99334.43;681886;1263;138636;-79
2024/01/13 16:12:15;;;;;;;45.80;20.60;;;;;;;2.74;100.00;99309.73;681791;1264;140010;-78
2024/01/13 16:27:20;;;;;;;24.70;12.10;;;;;;;2.84;100.00;99268.76;681817;1265;138881;-78
2024/01/13 16:42:24;;;;;;;30.50;14.20;;;;;;;2.72;100.00;99235.91;682136;1263;139134;-79
2024/01/13 16:57:28;;;;;;;32.70;15.00;;;;;;;2.78;100.00;99200.81;681998;1264;139829;-78
2024/01/13 17:12:36;;;;;;;27.10;13.30;;;;;;;2.83;100.00;99166.78;681920;1264;139190;-78
2024/01/13 17:27:51;;;;;;;37.90;16.80;;;;;;;2.86;100.00;99132.17;682304;1265;138695;-78
2024/01/13 17:42:56;;;;;;;36.90;17.10;;;;;;;2.96;100.00;99095.90;681831;1265;139100;-78
2024/01/13 17:58:00;;;;;;;36.40;16.70;;;;;;;2.99;100.00;99064.21;681998;1265;139240;-78
2024/01/13 18:13:05;;;;;;;24.60;11.70;;;;;;;3.01;100.00;99044.20;682030;1263;140095;-78
2024/01/13 18:28:09;;;;;;;28.60;11.90;;;;;;;2.92;100.00;99029.36;681913;1260;138901;-78
2024/01/13 18:43:13;;;;;;;24.50;10.80;;;;;;;2.97;100.00;99000.65;682009;1263;139169;-79
2024/01/13 18:58:17;;;;;;;20.40;10.10;;;;;;;3.00;100.00;98980.54;682055;1264;139129;-80
2024/01/13 19:13:22;;;;;;;21.20;11.10;;;;;;;2.98;100.00;98954.95;681980;1265;139647;-79
2024/01/13 19:28:26;;;;;;;15.70;8.80;;;;;;;3.06;100.00;98937.09;681971;1265;165228;-78
2024/01/13 19:43:30;;;;;;;15.00;7.90;;;;;;;3.05;100.00;98911.20;681942;1264;138551;-79
2024/01/13 19:58:34;;;;;;;13.80;7.50;;;;;;;3.14;100.00;98883.41;681952;1266;139120;-79
2024/01/13 20:13:40;;;;;;;22.70;9.10;;;;;;;3.26;100.00;98856.38;682012;1263;138764;-80
2024/01/13 20:28:49;;;;;;;21.90;9.50;;;;;;;3.32;100.00;98836.34;682000;1266;139848;-79
2024/01/13 20:43:54;;;;;;;30.40;11.90;;;;;;;3.44;100.00;98824.48;681986;1266;154679;-80
2024/01/13 20:58:57;;;;;;;30.50;12.90;;;;;;;3.49;100.00;98812.33;682161;1263;140262;-79
2024/01/13 21:14:02;;;;;;;26.30;9.30;;;;;;;3.46;100.00;98792.88;681863;1263;140045;-82
2024/01/13 21:29:08;;;;;;;30.20;12.10;;;;;;;3.44;100.00;98780.10;681802;1273;139307;-82
2024/01/13 21:44:13;;;;;;;31.50;11.50;;;;;;;3.35;100.00;98752.61;682016;1261;138615;-81
2024/01/13 21:59:17;;;;;;;17.60;7.40;;;;;;;3.35;100.00;98725.49;682000;1264;138877;-84
2024/01/13 22:14:23;;;;;;;22.70;9.50;;;;;;;3.34;100.00;98702.58;682116;1272;138536;-83
2024/01/13 22:29:27;;;;;;;14.40;8.20;;;;;;;3.48;100.00;98689.73;682240;1266;138603;-82
2024/01/13 22:44:31;;;;;;;24.40;10.20;;;;;;;3.44;100.00;98672.55;682269;1263;139418;-83
2024/01/13 22:59:35;;;;;;;10.90;6.40;;;;;;;3.44;100.00;98651.34;682245;1261;138891;-82
2024/01/13 23:14:38;;;;;;;27.70;10.80;;;;;;;3.45;100.00;98629.30;682294;1261;138517;-83
2024/01/13 23:29:43;;;;;;;15.40;7.60;;;;;;;3.62;100.00;98605.00;682088;1264;140136;-81
2024/01/13 23:44:48;;;;;;;17.80;9.50;;;;;;;3.71;100.00;98589.88;682157;1261;139419;-79
2024/01/13 23:59:52;;;;;;;14.80;7.80;;;;;;;3.75;100.00;98574.36;682319;1263;139151;-80
